createdAt,value
2023-03-06T00:00:59.282Z,82.72
2023-03-06T00:02:01.408Z,83.45
2023-03-06T00:03:03.972Z,82.74
2023-03-06T00:04:08.332Z,84.43
2023-03-06T00:05:10.463Z,84.25
2023-03-06T00:06:12.525Z,83.71
2023-03-06T00:07:14.661Z,83.24
2023-03-06T00:08:16.729Z,83.19
2023-03-06T00:09:18.695Z,82.80
2023-03-06T00:10:24.509Z,82.57
2023-03-06T00:11:26.485Z,84.03
2023-03-06T00:12:28.481Z,83.61
2023-03-06T00:13:32.404Z,83.57
2023-03-06T00:14:34.353Z,83.93
2023-03-06T00:15:36.507Z,84.49
2023-03-06T00:16:38.673Z,84.11
2023-03-06T00:17:41.486Z,83.72
2023-03-06T00:18:44.286Z,83.97
2023-03-06T00:19:46.267Z,84.32
2023-03-06T00:20:48.252Z,84.04
2023-03-06T00:21:50.614Z,83.41
2023-03-06T00:22:53.141Z,83.35
2023-03-06T00:23:55.120Z,83.49
2023-03-06T00:24:57.229Z,83.06
2023-03-06T00:25:59.216Z,83.81
2023-03-06T00:27:01.287Z,83.75
2023-03-06T00:28:03.321Z,83.92
2023-03-06T00:29:05.534Z,83.09
2023-03-06T00:30:08.582Z,84.15
2023-03-06T00:31:10.831Z,83.44
2023-03-06T00:32:12.828Z,83.63
2023-03-06T00:33:14.847Z,83.96
2023-03-06T00:34:16.795Z,83.95
2023-03-06T00:35:18.799Z,83.17
2023-03-06T00:36:21.002Z,84.15
2023-03-06T00:37:24.875Z,83.02
2023-03-06T00:38:28.738Z,84.31
2023-03-06T00:39:31.038Z,83.63
2023-03-06T00:40:33.178Z,83.58
2023-03-06T00:41:35.265Z,83.74
2023-03-06T00:42:37.337Z,83.88
2023-03-06T00:43:40.016Z,83.88
2023-03-06T00:44:42.363Z,84.40
2023-03-06T00:45:44.361Z,83.58
2023-03-06T00:46:46.536Z,83.37
2023-03-06T00:47:48.654Z,83.95
2023-03-06T00:48:50.647Z,84.64
2023-03-06T00:49:52.539Z,84.73
2023-03-06T00:50:54.720Z,84.68
2023-03-06T00:51:56.776Z,84.33
2023-03-06T00:52:58.725Z,84.05
2023-03-06T00:54:00.900Z,83.39
2023-03-06T00:55:02.906Z,84.66
2023-03-06T00:56:05.313Z,84.57
2023-03-06T00:57:07.939Z,84.38
2023-03-06T00:58:10.304Z,84.79
2023-03-06T00:59:12.344Z,84.60
2023-03-06T01:00:15.295Z,84.48
2023-03-06T01:01:17.468Z,84.52
2023-03-06T01:02:19.734Z,84.62
2023-03-06T01:03:21.826Z,83.81
2023-03-06T01:04:24.505Z,83.93
2023-03-06T01:05:26.760Z,83.89
2023-03-06T01:06:29.031Z,84.38
2023-03-06T01:07:34.266Z,84.37
2023-03-06T01:08:36.517Z,83.60
2023-03-06T01:09:38.656Z,82.98
2023-03-06T01:10:41.578Z,83.47
2023-03-06T01:11:43.768Z,83.41
2023-03-06T01:12:46.057Z,82.53
2023-03-06T01:13:48.205Z,83.64
2023-03-06T01:14:50.177Z,83.72
2023-03-06T01:15:53.080Z,82.84
2023-03-06T01:16:55.181Z,83.06
2023-03-06T01:17:57.234Z,83.67
2023-03-06T01:18:59.347Z,82.72
2023-03-06T01:20:01.420Z,83.07
2023-03-06T01:21:04.206Z,82.61
2023-03-06T01:22:06.339Z,83.19
2023-03-06T01:23:08.478Z,83.30
2023-03-06T01:24:10.696Z,82.53
2023-03-06T01:25:13.264Z,82.61
2023-03-06T01:26:15.618Z,82.54
2023-03-06T01:27:17.750Z,82.11
2023-03-06T01:28:19.994Z,83.13
2023-03-06T01:29:21.975Z,82.12
2023-03-06T01:30:23.927Z,83.56
2023-03-06T01:31:26.269Z,82.39
2023-03-06T01:32:28.612Z,82.75
2023-03-06T01:33:30.682Z,82.35
2023-03-06T01:34:32.633Z,81.93
2023-03-06T01:35:34.599Z,82.34
2023-03-06T01:36:36.635Z,82.57
2023-03-06T01:37:39.785Z,82.48
2023-03-06T01:38:41.855Z,81.63
2023-03-06T01:39:43.848Z,81.89
2023-03-06T01:40:46.639Z,81.82
2023-03-06T01:41:48.595Z,81.80
2023-03-06T01:42:51.187Z,82.21
2023-03-06T01:43:53.289Z,81.07
2023-03-06T01:45:13.413Z,81.05
2023-03-06T01:46:42.435Z,81.73
2023-03-06T01:47:45.368Z,80.78
2023-03-06T01:48:48.754Z,80.94
2023-03-06T01:49:51.027Z,81.27
2023-03-06T01:50:53.368Z,80.50
2023-03-06T01:52:01.902Z,80.13
2023-03-06T01:53:04.479Z,80.82
2023-03-06T01:54:14.874Z,80.64
2023-03-06T01:55:22.248Z,80.59
2023-03-06T01:56:25.489Z,80.61
2023-03-06T01:57:40.944Z,80.89
2023-03-06T01:58:44.273Z,79.86
2023-03-06T01:59:49.653Z,80.25
2023-03-06T02:00:51.770Z,79.77
2023-03-06T02:01:54.284Z,79.75
2023-03-06T02:03:01.876Z,79.32
2023-03-06T02:04:04.069Z,80.25
2023-03-06T02:05:08.730Z,79.61
2023-03-06T02:06:11.033Z,79.88
2023-03-06T02:07:15.691Z,79.93
2023-03-06T02:08:20.641Z,79.08
2023-03-06T02:09:23.113Z,79.51
2023-03-06T02:10:25.898Z,79.61
2023-03-06T02:11:28.081Z,79.61
2023-03-06T02:12:30.327Z,79.46
2023-03-06T02:13:32.777Z,79.22
2023-03-06T02:14:35.458Z,78.66
2023-03-06T02:15:37.589Z,78.91
2023-03-06T02:16:40.038Z,79.28
2023-03-06T02:17:46.463Z,78.36
2023-03-06T02:18:49.288Z,79.74
2023-03-06T02:20:09.483Z,79.82
2023-03-06T02:21:20.512Z,79.43
2023-03-06T02:22:23.628Z,79.20
2023-03-06T02:23:30.565Z,77.94
2023-03-06T02:24:46.569Z,77.55
2023-03-06T02:25:51.979Z,78.50
2023-03-06T02:26:55.954Z,78.14
2023-03-06T02:27:57.914Z,76.82
2023-03-06T02:29:00.223Z,79.05
2023-03-06T02:30:07.353Z,78.21
2023-03-06T02:31:26.119Z,77.54
2023-03-06T02:32:28.283Z,77.96
2023-03-06T02:33:30.385Z,78.07
2023-03-06T02:34:38.509Z,77.60
2023-03-06T02:35:43.743Z,77.51
2023-03-06T02:36:50.220Z,77.30
2023-03-06T02:37:53.135Z,78.33
2023-03-06T02:38:55.398Z,77.24
2023-03-06T02:40:08.528Z,76.53
2023-03-06T02:41:10.677Z,77.25
2023-03-06T02:42:18.864Z,78.33
2023-03-06T02:43:26.028Z,77.44
2023-03-06T02:44:28.977Z,78.22
2023-03-06T02:45:35.917Z,78.29
2023-03-06T02:46:37.921Z,76.75
2023-03-06T02:47:39.987Z,77.43
2023-03-06T02:48:41.985Z,76.84
2023-03-06T02:49:43.991Z,77.21
2023-03-06T02:50:46.961Z,77.00
2023-03-06T02:51:49.085Z,78.21
2023-03-06T02:52:51.139Z,77.01
2023-03-06T02:53:53.425Z,77.31
2023-03-06T02:54:55.406Z,77.14
2023-03-06T02:55:57.612Z,75.75
2023-03-06T02:56:59.593Z,77.24
2023-03-06T02:58:02.228Z,76.73
2023-03-06T02:59:04.196Z,77.35
2023-03-06T03:00:06.947Z,77.01
2023-03-06T03:01:09.134Z,76.55
2023-03-06T03:02:11.545Z,77.57
2023-03-06T03:03:13.638Z,76.75
2023-03-06T03:04:15.916Z,77.05
2023-03-06T03:05:18.238Z,76.96
2023-03-06T03:06:20.396Z,77.80
2023-03-06T03:07:22.368Z,77.29
2023-03-06T03:08:24.404Z,76.35
2023-03-06T03:09:26.428Z,77.18
2023-03-06T03:10:28.594Z,76.57
2023-03-06T03:11:30.763Z,76.72
2023-03-06T03:12:33.464Z,77.32
2023-03-06T03:13:35.375Z,77.05
2023-03-06T03:14:37.489Z,76.06
2023-03-06T03:15:39.664Z,76.67
2023-03-06T03:16:41.800Z,76.50
2023-03-06T03:17:43.889Z,76.12
2023-03-06T03:18:48.126Z,75.85
2023-03-06T03:19:50.018Z,75.91
2023-03-06T03:20:52.054Z,75.42
2023-03-06T03:21:54.053Z,76.88
2023-03-06T03:22:56.613Z,76.57
2023-03-06T03:23:58.593Z,76.50
2023-03-06T03:25:00.579Z,76.73
2023-03-06T03:26:17.856Z,76.36
2023-03-06T03:27:19.964Z,77.13
2023-03-06T03:28:21.976Z,76.53
2023-03-06T03:29:24.009Z,77.40
2023-03-06T03:30:25.977Z,75.98
2023-03-06T03:31:28.166Z,76.69
2023-03-06T03:32:30.244Z,76.19
2023-03-06T03:33:32.638Z,77.24
2023-03-06T03:34:34.800Z,77.20
2023-03-06T03:35:37.123Z,77.25
2023-03-06T03:36:39.544Z,77.29
2023-03-06T03:37:41.579Z,76.42
2023-03-06T03:38:43.817Z,76.59
2023-03-06T03:39:45.822Z,76.72
2023-03-06T03:40:47.808Z,76.82
2023-03-06T03:41:49.808Z,77.18
2023-03-06T03:42:51.946Z,77.18
2023-03-06T03:43:54.069Z,77.26
2023-03-06T03:44:56.004Z,76.32
2023-03-06T03:45:57.891Z,77.03
2023-03-06T03:46:59.892Z,75.81
2023-03-06T03:48:01.867Z,75.78
2023-03-06T03:49:04.842Z,75.73
2023-03-06T03:50:08.110Z,76.39
2023-03-06T03:51:12.580Z,75.92
2023-03-06T03:52:14.592Z,75.03
2023-03-06T03:53:17.019Z,75.15
2023-03-06T03:54:19.214Z,75.80
2023-03-06T03:55:21.196Z,76.39
2023-03-06T03:56:24.359Z,76.11
2023-03-06T03:57:26.370Z,76.17
2023-03-06T03:58:28.436Z,75.56
2023-03-06T03:59:30.547Z,76.09
2023-03-06T04:00:32.616Z,75.26
2023-03-06T04:01:34.794Z,75.20
2023-03-06T04:02:36.823Z,75.85
2023-03-06T04:03:38.828Z,75.28
2023-03-06T04:04:40.981Z,75.47
2023-03-06T04:05:43.108Z,75.38
2023-03-06T04:06:45.020Z,75.54
2023-03-06T04:07:47.089Z,76.94
2023-03-06T04:08:49.147Z,75.46
2023-03-06T04:09:51.094Z,76.36
2023-03-06T04:10:54.342Z,75.05
2023-03-06T04:11:56.248Z,75.24
2023-03-06T04:12:58.226Z,75.55
2023-03-06T04:14:00.301Z,75.25
2023-03-06T04:15:02.696Z,74.92
2023-03-06T04:16:05.807Z,75.30
2023-03-06T04:17:07.733Z,75.57
2023-03-06T04:18:09.687Z,75.11
2023-03-06T04:19:11.913Z,75.37
2023-03-06T04:20:14.712Z,75.25
2023-03-06T04:21:16.877Z,75.43
2023-03-06T04:22:18.928Z,75.58
2023-03-06T04:23:23.038Z,74.90
2023-03-06T04:24:25.447Z,75.28
2023-03-06T04:25:27.414Z,75.33
2023-03-06T04:26:29.573Z,74.96
2023-03-06T04:27:31.554Z,75.40
2023-03-06T04:28:33.693Z,75.12
2023-03-06T04:29:35.763Z,75.24
2023-03-06T04:30:38.462Z,75.05
2023-03-06T04:31:40.630Z,75.16
2023-03-06T04:32:42.678Z,75.72
2023-03-06T04:33:44.776Z,75.31
2023-03-06T04:34:46.759Z,75.07
2023-03-06T04:35:48.946Z,75.50
2023-03-06T04:36:51.010Z,76.37
2023-03-06T04:37:53.106Z,75.91
2023-03-06T04:38:55.324Z,74.40
2023-03-06T04:39:57.366Z,75.07
2023-03-06T04:40:59.507Z,75.30
2023-03-06T04:42:01.791Z,75.03
2023-03-06T04:43:04.716Z,75.44
2023-03-06T04:44:07.177Z,75.60
2023-03-06T04:45:09.554Z,75.60
2023-03-06T04:46:11.968Z,75.79
2023-03-06T04:47:14.486Z,75.25
2023-03-06T04:48:18.726Z,75.00
2023-03-06T04:49:20.859Z,75.06
2023-03-06T04:50:24.188Z,75.61
2023-03-06T04:51:26.338Z,75.95
2023-03-06T04:52:28.627Z,74.85
2023-03-06T04:53:30.676Z,75.90
2023-03-06T04:54:33.088Z,75.21
2023-03-06T04:55:35.539Z,75.62
2023-03-06T04:56:37.516Z,75.23
2023-03-06T04:57:43.048Z,75.98
2023-03-06T04:58:45.204Z,75.44
2023-03-06T04:59:47.177Z,75.48
2023-03-06T05:00:49.098Z,75.95
2023-03-06T05:01:51.112Z,74.82
2023-03-06T05:02:53.205Z,75.79
2023-03-06T05:03:55.273Z,74.72
2023-03-06T05:04:57.492Z,74.85
2023-03-06T05:05:59.660Z,75.73
2023-03-06T05:07:01.572Z,74.87
2023-03-06T05:08:03.756Z,75.98
2023-03-06T05:09:05.903Z,75.08
2023-03-06T05:10:11.453Z,74.66
2023-03-06T05:11:13.550Z,74.37
2023-03-06T05:12:15.541Z,75.11
2023-03-06T05:13:17.455Z,74.92
2023-03-06T05:14:19.689Z,75.15
2023-03-06T05:15:21.840Z,74.98
2023-03-06T05:16:23.955Z,74.91
2023-03-06T05:17:25.887Z,75.22
2023-03-06T05:18:28.012Z,75.72
2023-03-06T05:19:30.087Z,75.51
2023-03-06T05:20:32.411Z,75.03
2023-03-06T05:21:34.499Z,74.98
2023-03-06T05:22:36.482Z,73.52
2023-03-06T05:23:38.899Z,74.10
2023-03-06T05:24:40.832Z,74.28
2023-03-06T05:25:42.924Z,73.35
2023-03-06T05:26:44.913Z,72.86
2023-03-06T05:27:47.183Z,74.73
2023-03-06T05:28:49.286Z,72.96
2023-03-06T05:29:51.234Z,73.55
2023-03-06T05:30:53.348Z,72.06
2023-03-06T05:31:55.513Z,71.39
2023-03-06T05:32:57.630Z,71.29
2023-03-06T05:34:00.825Z,73.16
2023-03-06T05:35:03.033Z,72.53
2023-03-06T05:36:07.532Z,70.50
2023-03-06T05:37:09.662Z,70.59
2023-03-06T05:38:11.876Z,70.72
2023-03-06T05:39:13.883Z,71.36
2023-03-06T05:40:17.141Z,71.89
2023-03-06T05:41:19.572Z,71.58
2023-03-06T05:42:21.755Z,70.86
2023-03-06T05:43:23.838Z,70.47
2023-03-06T05:44:31.254Z,71.60
2023-03-06T05:45:33.277Z,70.77
2023-03-06T05:46:35.432Z,71.35
2023-03-06T05:47:37.584Z,70.68
2023-03-06T05:48:39.563Z,71.91
2023-03-06T05:49:41.506Z,71.98
2023-03-06T05:50:43.395Z,72.04
2023-03-06T05:51:45.442Z,72.64
2023-03-06T05:52:47.599Z,72.35
2023-03-06T05:53:49.925Z,72.08
2023-03-06T05:54:54.146Z,73.29
2023-03-06T05:56:00.594Z,72.70
2023-03-06T05:57:04.391Z,73.41
2023-03-06T05:58:06.386Z,74.00
2023-03-06T05:59:08.405Z,72.76
2023-03-06T06:00:11.416Z,72.85
2023-03-06T06:01:19.272Z,72.36
2023-03-06T06:02:21.706Z,73.19
2023-03-06T06:03:24.162Z,73.08
2023-03-06T06:04:26.739Z,74.37
2023-03-06T06:05:28.748Z,72.11
2023-03-06T06:06:30.751Z,73.12
2023-03-06T06:07:32.770Z,72.90
2023-03-06T06:08:35.093Z,74.09
2023-03-06T06:09:37.161Z,73.16
2023-03-06T06:10:40.330Z,72.48
2023-03-06T06:11:42.417Z,73.24
2023-03-06T06:12:44.559Z,72.79
2023-03-06T06:13:48.323Z,73.12
2023-03-06T06:14:50.312Z,73.28
2023-03-06T06:15:52.377Z,72.51
2023-03-06T06:16:54.626Z,73.79
2023-03-06T06:17:57.726Z,74.10
2023-03-06T06:19:00.304Z,74.73
2023-03-06T06:20:02.412Z,72.76
2023-03-06T06:21:12.236Z,73.77
2023-03-06T06:22:14.229Z,71.86
2023-03-06T06:23:16.202Z,72.55
2023-03-06T06:24:21.216Z,73.01
2023-03-06T06:25:23.159Z,72.95
2023-03-06T06:26:25.120Z,73.31
2023-03-06T06:27:27.063Z,73.55
2023-03-06T06:28:30.036Z,72.10
2023-03-06T06:29:33.401Z,74.08
2023-03-06T06:30:35.572Z,73.78
2023-03-06T06:31:38.272Z,72.67
2023-03-06T06:32:40.450Z,72.35
2023-03-06T06:33:43.416Z,73.30
2023-03-06T06:34:45.346Z,74.18
2023-03-06T06:35:47.353Z,72.84
2023-03-06T06:36:52.859Z,73.94
2023-03-06T06:37:55.404Z,73.50
2023-03-06T06:38:57.605Z,72.50
2023-03-06T06:39:59.608Z,73.44
2023-03-06T06:41:35.733Z,73.35
2023-03-06T06:42:33.248Z,73.41
2023-03-06T06:43:39.108Z,74.42
2023-03-06T06:44:41.275Z,73.75
2023-03-06T06:45:44.358Z,73.11
2023-03-06T06:47:21.151Z,74.20
2023-03-06T06:48:09.492Z,74.23
2023-03-06T06:49:14.493Z,73.65
2023-03-06T06:50:16.434Z,73.62
2023-03-06T06:51:18.683Z,74.96
2023-03-06T06:52:21.421Z,73.87
2023-03-06T06:53:23.834Z,73.58
2023-03-06T06:54:26.055Z,74.24
2023-03-06T06:55:28.114Z,74.34
2023-03-06T06:56:30.106Z,75.15
2023-03-06T06:57:32.112Z,73.52
2023-03-06T06:58:34.420Z,73.63
2023-03-06T06:59:36.518Z,74.23
2023-03-06T07:00:38.502Z,74.18
2023-03-06T07:01:40.794Z,73.90
2023-03-06T07:02:42.776Z,74.52
2023-03-06T07:03:44.781Z,74.82
2023-03-06T07:05:02.511Z,73.65
2023-03-06T07:06:07.403Z,74.93
2023-03-06T07:07:09.382Z,74.10
2023-03-06T07:08:11.508Z,74.36
2023-03-06T07:09:14.166Z,73.92
2023-03-06T07:10:16.284Z,74.58
2023-03-06T07:11:19.244Z,74.50
2023-03-06T07:12:21.316Z,74.77
2023-03-06T07:13:23.474Z,74.18
2023-03-06T07:14:25.633Z,75.41
2023-03-06T07:15:30.960Z,74.95
2023-03-06T07:16:33.023Z,74.13
2023-03-06T07:17:34.997Z,74.39
2023-03-06T07:18:37.025Z,74.85
2023-03-06T07:19:39.641Z,74.44
2023-03-06T07:20:41.792Z,74.63
2023-03-06T07:21:43.830Z,74.70
2023-03-06T07:22:51.426Z,76.02
2023-03-06T07:23:54.473Z,75.24
2023-03-06T07:24:56.528Z,75.04
2023-03-06T07:25:58.767Z,76.04
2023-03-06T07:27:00.743Z,75.82
2023-03-06T07:28:02.708Z,75.10
2023-03-06T07:29:04.754Z,75.23
2023-03-06T07:30:07.858Z,75.94
2023-03-06T07:31:11.740Z,75.91
2023-03-06T07:32:13.823Z,76.24
2023-03-06T07:33:16.544Z,75.99
2023-03-06T07:34:18.575Z,75.86
2023-03-06T07:35:21.085Z,75.70
2023-03-06T07:36:24.009Z,76.09
2023-03-06T07:37:26.142Z,76.46
2023-03-06T07:38:28.092Z,76.17
2023-03-06T07:39:30.510Z,77.05
2023-03-06T07:40:32.662Z,76.99
2023-03-06T07:41:34.846Z,76.32
2023-03-06T07:42:36.867Z,77.13
2023-03-06T07:43:39.610Z,77.11
2023-03-06T07:44:42.029Z,76.69
2023-03-06T07:45:44.137Z,76.67
2023-03-06T07:46:46.299Z,76.16
2023-03-06T07:47:50.831Z,77.94
2023-03-06T07:48:52.997Z,78.02
2023-03-06T07:49:56.556Z,76.65
2023-03-06T07:51:07.127Z,77.06
2023-03-06T07:52:09.324Z,76.00
2023-03-06T07:53:11.691Z,75.77
2023-03-06T07:54:13.919Z,76.38
2023-03-06T07:55:16.251Z,75.91
2023-03-06T07:56:18.261Z,76.46
2023-03-06T07:57:20.398Z,76.45
2023-03-06T07:58:22.577Z,76.75
2023-03-06T07:59:25.825Z,76.73
2023-03-06T08:00:27.936Z,75.99
2023-03-06T08:01:30.005Z,75.50
2023-03-06T08:02:32.340Z,75.35
2023-03-06T08:03:34.511Z,76.07
2023-03-06T08:04:36.771Z,75.71
2023-03-06T08:05:38.812Z,75.93
2023-03-06T08:06:40.854Z,74.79
2023-03-06T08:07:46.131Z,75.74
2023-03-06T08:08:50.057Z,75.61
2023-03-06T08:09:52.350Z,75.10
2023-03-06T08:10:54.386Z,76.08
2023-03-06T08:11:56.849Z,75.50
2023-03-06T08:12:58.938Z,74.70
2023-03-06T08:14:00.882Z,75.21
2023-03-06T08:15:03.614Z,74.89
2023-03-06T08:16:06.455Z,74.76
2023-03-06T08:17:08.669Z,74.39
2023-03-06T08:18:10.603Z,74.65
2023-03-06T08:19:12.711Z,75.07
2023-03-06T08:20:14.702Z,74.58
2023-03-06T08:21:19.879Z,74.60
2023-03-06T08:22:21.837Z,73.99
2023-03-06T08:23:23.843Z,73.54
2023-03-06T08:24:25.987Z,75.05
2023-03-06T08:25:28.113Z,73.16
2023-03-06T08:26:32.228Z,72.67
2023-03-06T08:27:34.699Z,77.12
2023-03-06T08:28:36.822Z,73.22
2023-03-06T08:29:38.952Z,73.85
2023-03-06T08:30:40.926Z,74.19
2023-03-06T08:31:45.279Z,73.89
2023-03-06T08:32:47.410Z,73.64
2023-03-06T08:33:49.945Z,73.63
2023-03-06T08:34:52.070Z,72.76
2023-03-06T08:35:54.197Z,73.77
2023-03-06T08:36:56.146Z,74.73
2023-03-06T08:37:58.304Z,75.74
2023-03-06T08:39:00.763Z,75.07
2023-03-06T08:40:04.830Z,74.82
2023-03-06T08:41:06.918Z,74.29
2023-03-06T08:42:10.196Z,74.81
2023-03-06T08:43:14.091Z,74.48
2023-03-06T08:44:16.277Z,76.88
2023-03-06T08:45:18.244Z,75.59
2023-03-06T08:46:23.513Z,74.96
2023-03-06T08:47:25.639Z,76.35
2023-03-06T08:48:28.309Z,78.41
2023-03-06T08:49:30.420Z,80.84
2023-03-06T08:50:32.532Z,79.91
2023-03-06T08:51:34.486Z,80.59
2023-03-06T08:52:36.462Z,80.79
2023-03-06T08:53:43.501Z,79.24
2023-03-06T08:54:46.549Z,79.86
2023-03-06T08:55:48.451Z,78.40
2023-03-06T08:56:50.591Z,79.38
2023-03-06T08:57:52.584Z,77.58
2023-03-06T08:58:56.421Z,78.89
2023-03-06T08:59:58.585Z,75.57
2023-03-06T09:01:00.707Z,77.73
2023-03-06T09:02:04.185Z,74.71
2023-03-06T09:03:06.214Z,77.69
2023-03-06T09:04:12.511Z,74.25
2023-03-06T09:05:14.546Z,72.27
2023-03-06T09:06:17.133Z,72.23
2023-03-06T09:07:19.207Z,73.03
2023-03-06T09:08:21.099Z,71.22
2023-03-06T09:09:23.355Z,71.45
2023-03-06T09:10:26.909Z,71.41
2023-03-06T09:11:29.518Z,70.97
2023-03-06T09:12:40.418Z,71.36
2023-03-06T09:13:50.257Z,69.61
2023-03-06T09:14:52.679Z,69.77
2023-03-06T09:15:54.704Z,69.96
2023-03-06T09:16:56.653Z,69.72
2023-03-06T09:17:58.798Z,68.74
2023-03-06T09:19:00.856Z,69.65
2023-03-06T09:20:02.889Z,68.89
2023-03-06T09:21:05.892Z,69.39
2023-03-06T09:22:07.990Z,68.23
2023-03-06T09:23:10.613Z,69.25
2023-03-06T09:24:13.106Z,68.48
2023-03-06T09:25:20.297Z,69.22
2023-03-06T09:26:28.035Z,68.73
2023-03-06T09:27:35.217Z,67.56
2023-03-06T09:28:39.796Z,68.96
2023-03-06T09:29:41.888Z,67.98
2023-03-06T09:30:43.935Z,69.56
2023-03-06T09:31:46.413Z,69.32
2023-03-06T09:32:48.617Z,67.81
2023-03-06T09:33:50.753Z,67.38
2023-03-06T09:34:52.757Z,66.55
2023-03-06T09:35:58.828Z,67.03
2023-03-06T09:37:02.968Z,68.03
2023-03-06T09:38:04.751Z,72.62
2023-03-06T09:39:06.713Z,67.25
2023-03-06T09:40:35.517Z,67.31
2023-03-06T09:41:40.866Z,68.89
2023-03-06T09:42:42.977Z,69.37
2023-03-06T09:43:48.364Z,67.84
2023-03-06T09:45:00.636Z,68.09
2023-03-06T09:46:31.728Z,69.34
2023-03-06T09:48:04.090Z,70.30
2023-03-06T09:49:18.229Z,69.40
2023-03-06T09:50:29.240Z,67.44
2023-03-06T09:51:51.477Z,66.47
2023-03-06T09:53:05.264Z,65.53
2023-03-06T09:54:15.202Z,67.23
2023-03-06T09:55:24.423Z,67.05
2023-03-06T09:56:31.974Z,64.03
2023-03-06T09:57:42.588Z,63.67
2023-03-06T09:58:50.148Z,63.73
2023-03-06T09:59:55.698Z,63.08
2023-03-06T10:01:05.183Z,65.91
2023-03-06T10:02:25.866Z,66.10
2023-03-06T10:03:48.767Z,66.54
2023-03-06T10:04:59.492Z,65.41
2023-03-06T10:06:21.832Z,65.20
2023-03-06T10:07:41.275Z,68.11
2023-03-06T10:08:55.569Z,67.92
2023-03-06T10:10:02.723Z,64.25
2023-03-06T10:11:10.098Z,63.62
2023-03-06T10:12:24.802Z,66.84
2023-03-06T10:13:38.199Z,65.44
2023-03-06T10:14:55.609Z,65.50
2023-03-06T10:16:27.308Z,67.69
2023-03-06T10:17:35.941Z,63.32
2023-03-06T10:18:39.257Z,65.73
2023-03-06T10:19:42.544Z,65.48
2023-03-06T10:20:49.054Z,66.56
2023-03-06T10:22:19.799Z,67.46
2023-03-06T10:23:27.573Z,66.78
2023-03-06T10:24:45.412Z,66.80
2023-03-06T10:26:01.352Z,67.75
2023-03-06T10:27:21.676Z,66.63
2023-03-06T10:28:34.458Z,67.77
2023-03-06T10:30:02.638Z,67.56
2023-03-06T10:31:11.144Z,67.19
2023-03-06T10:32:48.297Z,69.31
2023-03-06T10:34:02.488Z,68.09
2023-03-06T10:35:15.810Z,66.37
2023-03-06T10:36:20.203Z,66.72
2023-03-06T10:37:23.194Z,65.18
2023-03-06T10:38:32.227Z,64.70
2023-03-06T10:39:34.949Z,63.26
2023-03-06T10:40:47.802Z,64.60
2023-03-06T10:41:50.513Z,63.80
2023-03-06T10:43:05.106Z,64.17
2023-03-06T10:44:12.924Z,63.78
2023-03-06T10:45:17.764Z,62.95
2023-03-06T10:46:28.974Z,64.28
2023-03-06T10:47:35.457Z,63.99
2023-03-06T10:48:41.992Z,63.46
2023-03-06T10:49:58.103Z,63.32
2023-03-06T10:51:24.492Z,66.33
2023-03-06T10:52:30.262Z,65.41
2023-03-06T10:53:33.162Z,65.24
2023-03-06T10:54:37.870Z,64.97
2023-03-06T10:55:40.300Z,65.13
2023-03-06T10:56:44.193Z,66.11
2023-03-06T10:57:46.267Z,65.70
2023-03-06T10:58:48.216Z,65.47
2023-03-06T11:00:04.049Z,67.60
2023-03-06T11:01:18.835Z,65.57
2023-03-06T11:02:33.539Z,66.64
2023-03-06T11:03:38.649Z,65.01
2023-03-06T11:04:46.273Z,64.43
2023-03-06T11:06:13.009Z,65.26
2023-03-06T11:07:18.386Z,64.59
2023-03-06T11:08:22.963Z,64.59
2023-03-06T11:09:26.457Z,64.57
2023-03-06T11:10:29.959Z,65.25
2023-03-06T11:11:37.761Z,65.21
2023-03-06T11:12:42.643Z,65.90
2023-03-06T11:13:45.319Z,66.13
2023-03-06T11:14:47.598Z,66.33
2023-03-06T11:15:59.934Z,67.71
2023-03-06T11:17:01.914Z,65.47
2023-03-06T11:18:19.900Z,67.23
2023-03-06T11:19:25.967Z,66.04
2023-03-06T11:20:52.827Z,65.99
2023-03-06T11:22:16.390Z,67.57
2023-03-06T11:23:29.287Z,65.08
2023-03-06T11:24:46.709Z,67.63
2023-03-06T11:26:01.411Z,65.74
2023-03-06T11:27:34.690Z,68.02
2023-03-06T11:28:46.405Z,67.66
2023-03-06T11:29:55.089Z,66.90
2023-03-06T11:31:06.106Z,66.15
2023-03-06T11:32:29.872Z,68.17
2023-03-06T11:33:56.746Z,69.23
2023-03-06T11:35:10.741Z,66.18
2023-03-06T11:36:37.454Z,65.90
2023-03-06T11:37:57.700Z,67.46
2023-03-06T11:39:00.333Z,66.63
2023-03-06T11:40:11.461Z,68.01
2023-03-06T11:41:26.591Z,66.54
2023-03-06T11:42:48.066Z,67.89
2023-03-06T11:44:01.140Z,66.21
2023-03-06T11:45:24.817Z,68.55
2023-03-06T11:46:39.175Z,67.19
2023-03-06T11:48:00.462Z,67.14
2023-03-06T11:49:19.488Z,67.28
2023-03-06T11:50:55.615Z,68.07
2023-03-06T11:52:07.136Z,66.65
2023-03-06T11:53:16.162Z,66.33
2023-03-06T11:54:18.158Z,66.89
2023-03-06T11:55:54.224Z,67.72
2023-03-06T11:57:05.135Z,66.83
2023-03-06T11:58:09.788Z,66.55
2023-03-06T11:59:39.011Z,66.96
2023-03-06T12:00:54.504Z,67.04
2023-03-06T12:02:14.828Z,65.58
2023-03-06T12:03:31.980Z,67.22
2023-03-06T12:05:00.486Z,67.70
2023-03-06T12:06:22.539Z,65.49
2023-03-06T12:07:41.414Z,64.64
2023-03-06T12:08:57.337Z,65.68
2023-03-06T12:10:31.007Z,64.58
2023-03-06T12:12:00.503Z,65.39
2023-03-06T12:13:20.745Z,64.07
2023-03-06T12:14:55.653Z,65.87
2023-03-06T12:16:35.092Z,67.41
2023-03-06T12:17:55.234Z,64.84
2023-03-06T12:19:18.792Z,65.15
2023-03-06T12:20:45.933Z,66.79
2023-03-06T12:21:47.846Z,65.67
2023-03-06T12:23:15.303Z,65.27
2023-03-06T12:25:00.755Z,67.59
2023-03-06T12:26:22.128Z,65.74
2023-03-06T12:27:48.946Z,66.91
2023-03-06T12:29:25.892Z,67.61
2023-03-06T12:30:36.558Z,65.89
2023-03-06T12:32:17.099Z,66.88
2023-03-06T12:33:56.286Z,67.17
2023-03-06T12:35:25.511Z,67.49
2023-03-06T12:36:30.259Z,68.05
2023-03-06T12:38:06.536Z,66.73
2023-03-06T12:39:52.349Z,66.77
2023-03-06T12:40:54.493Z,64.98
2023-03-06T12:42:11.295Z,64.31
2023-03-06T12:43:33.777Z,65.91
2023-03-06T12:45:12.876Z,66.25
2023-03-06T12:46:23.210Z,65.18
2023-03-06T12:47:28.336Z,64.41
2023-03-06T12:48:36.633Z,63.88
2023-03-06T12:49:44.045Z,63.38
2023-03-06T12:50:46.770Z,64.59
2023-03-06T12:51:49.124Z,64.67
2023-03-06T12:52:54.024Z,64.39
2023-03-06T12:54:00.050Z,64.25
2023-03-06T12:55:07.753Z,64.51
2023-03-06T12:56:15.448Z,64.38
2023-03-06T12:57:17.361Z,64.32
2023-03-06T12:58:28.510Z,65.34
2023-03-06T12:59:37.180Z,65.48
2023-03-06T13:00:39.435Z,64.66
2023-03-06T13:02:11.848Z,65.37
2023-03-06T13:03:35.908Z,66.38
2023-03-06T13:04:48.415Z,66.21
2023-03-06T13:05:50.356Z,64.62
2023-03-06T13:07:29.896Z,65.13
2023-03-06T13:08:41.812Z,64.18
2023-03-06T13:09:57.216Z,63.44
2023-03-06T13:11:11.479Z,63.67
2023-03-06T13:12:16.076Z,64.06
2023-03-06T13:13:42.980Z,66.56
2023-03-06T13:14:54.172Z,64.27
2023-03-06T13:16:13.797Z,65.33
2023-03-06T13:17:37.853Z,66.23
2023-03-06T13:18:42.909Z,64.68
2023-03-06T13:19:44.966Z,63.88
2023-03-06T13:20:49.266Z,63.69
2023-03-06T13:21:56.997Z,64.34
2023-03-06T13:22:59.247Z,62.51
2023-03-06T13:24:06.025Z,62.63
2023-03-06T13:25:19.958Z,64.25
2023-03-06T13:26:25.163Z,61.95
2023-03-06T13:27:54.849Z,64.74
2023-03-06T13:28:58.358Z,62.25
2023-03-06T13:30:23.974Z,62.71
2023-03-06T13:31:27.995Z,60.79
2023-03-06T13:32:31.951Z,60.42
2023-03-06T13:33:35.157Z,59.59
2023-03-06T13:34:40.003Z,60.92
2023-03-06T13:35:42.006Z,60.13
2023-03-06T13:36:43.948Z,60.53
2023-03-06T13:37:50.549Z,60.17
2023-03-06T13:38:52.503Z,60.91
2023-03-06T13:39:54.375Z,60.81
2023-03-06T13:41:25.161Z,62.79
2023-03-06T13:42:30.954Z,60.48
2023-03-06T13:43:43.134Z,60.54
2023-03-06T13:44:46.652Z,60.52
2023-03-06T13:45:50.249Z,62.83
2023-03-06T13:47:01.292Z,61.78
2023-03-06T13:48:30.397Z,61.85
2023-03-06T13:49:27.596Z,61.26
2023-03-06T13:50:46.796Z,61.40
2023-03-06T13:51:51.927Z,61.53
2023-03-06T13:53:03.200Z,61.93
2023-03-06T13:54:36.070Z,62.82
2023-03-06T13:55:58.171Z,62.81
2023-03-06T13:57:25.012Z,60.94
2023-03-06T13:59:13.846Z,62.73
2023-03-06T14:00:37.497Z,62.24
2023-03-06T14:01:49.431Z,62.34
2023-03-06T14:02:55.947Z,62.09
2023-03-06T14:04:27.455Z,62.81
2023-03-06T14:05:50.134Z,63.65
2023-03-06T14:06:59.810Z,61.73
2023-03-06T14:08:04.420Z,61.04
2023-03-06T14:09:23.816Z,62.83
2023-03-06T14:10:26.824Z,61.36
2023-03-06T14:11:29.013Z,61.57
2023-03-06T14:12:38.317Z,62.23
2023-03-06T14:13:49.628Z,62.51
2023-03-06T14:14:58.237Z,62.66